createdAt,value
2018-04-17T00:01:15.949Z,3.40
2018-04-17T00:03:20.044Z,3.87
2018-04-17T00:05:24.191Z,3.40
2018-04-17T00:07:27.518Z,4.13
2018-04-17T00:09:30.846Z,3.80
2018-04-17T00:11:34.979Z,3.43
2018-04-17T00:13:38.297Z,3.37
2018-04-17T00:15:41.665Z,4.03
2018-04-17T00:17:45.009Z,3.80
2018-04-17T00:19:48.342Z,3.67
2018-04-17T00:21:51.688Z,3.90
2018-04-17T00:23:55.045Z,3.40
2018-04-17T00:25:58.408Z,3.80
2018-04-17T00:28:01.750Z,4.27
2018-04-17T00:30:05.878Z,3.30
2018-04-17T00:32:09.972Z,2.90
2018-04-17T00:34:13.311Z,3.53
2018-04-17T00:36:16.674Z,2.80
2018-04-17T00:38:20.769Z,3.73
2018-04-17T00:42:34.393Z,4.50
2018-04-17T00:44:37.735Z,3.97
2018-04-17T00:46:41.146Z,3.80
2018-04-17T00:48:44.454Z,3.93
2018-04-17T00:50:47.776Z,3.67
2018-04-17T00:52:51.913Z,4.13
2018-04-17T00:54:56.007Z,3.67
2018-04-17T00:56:59.337Z,3.67
2018-04-17T00:59:02.655Z,4.00
2018-04-17T01:01:05.975Z,4.37
2018-04-17T01:03:10.101Z,3.47
2018-04-17T01:05:14.178Z,3.70
2018-04-17T01:07:17.497Z,3.80
2018-04-17T01:09:21.593Z,3.80
2018-04-17T01:11:24.939Z,3.80
2018-04-17T01:13:28.297Z,3.97
2018-04-17T01:15:32.241Z,3.50
2018-04-17T01:17:37.217Z,4.40
2018-04-17T01:19:41.324Z,4.13
2018-04-17T01:21:45.430Z,4.00
2018-04-17T01:23:48.800Z,4.37
2018-04-17T01:25:52.108Z,4.50
2018-04-17T01:27:55.423Z,4.20
2018-04-17T01:29:59.528Z,4.33
2018-04-17T01:32:02.884Z,3.87
2018-04-17T01:34:06.192Z,4.00
2018-04-17T01:36:09.506Z,4.20
2018-04-17T01:38:12.857Z,4.10
2018-04-17T01:40:16.228Z,4.20
2018-04-17T01:42:19.559Z,3.77
2018-04-17T01:44:22.877Z,4.30
2018-04-17T01:46:26.193Z,4.50
2018-04-17T01:48:29.529Z,3.60
2018-04-17T01:50:32.876Z,4.40
2018-04-17T01:52:36.195Z,4.10
2018-04-17T01:54:39.501Z,3.40
2018-04-17T01:56:43.596Z,4.03
2018-04-17T01:58:46.921Z,3.80
2018-04-17T02:00:50.292Z,4.10
2018-04-17T02:02:54.403Z,4.00
2018-04-17T02:04:58.521Z,4.30
2018-04-17T02:07:01.837Z,3.57
2018-04-17T02:09:05.143Z,4.17
2018-04-17T02:11:09.275Z,3.87
2018-04-17T02:13:12.630Z,4.13
2018-04-17T02:15:15.946Z,4.80
2018-04-17T02:17:19.271Z,4.50
2018-04-17T02:19:22.576Z,4.33
2018-04-17T02:21:26.728Z,5.23
2018-04-17T02:23:30.792Z,4.20
2018-04-17T02:25:34.108Z,4.77
2018-04-17T02:27:37.429Z,4.00
2018-04-17T02:29:40.750Z,4.30
2018-04-17T02:31:44.100Z,3.77
2018-04-17T02:33:47.411Z,4.13
2018-04-17T02:35:50.733Z,4.17
2018-04-17T02:37:54.074Z,4.13
2018-04-17T02:39:57.416Z,4.47
2018-04-17T02:42:01.571Z,3.93
2018-04-17T02:44:04.906Z,4.20
2018-04-17T02:46:09.028Z,4.10
2018-04-17T02:48:13.165Z,3.93
2018-04-17T02:50:16.475Z,4.07
2018-04-17T02:52:19.826Z,3.90
2018-04-17T02:54:23.128Z,4.20
2018-04-17T02:56:27.207Z,4.00
2018-04-17T02:58:30.537Z,4.93
2018-04-17T03:00:33.873Z,4.27
2018-04-17T03:02:37.244Z,4.43
2018-04-17T03:04:40.554Z,3.93
2018-04-17T03:06:43.888Z,4.00
2018-04-17T03:08:47.223Z,3.73
2018-04-17T03:10:50.533Z,4.30
2018-04-17T03:12:53.877Z,3.50
2018-04-17T03:14:57.218Z,4.00
2018-04-17T03:17:00.562Z,4.23
2018-04-17T03:19:03.917Z,4.20
2018-04-17T03:21:08.010Z,4.23
2018-04-17T03:23:11.383Z,4.10
2018-04-17T03:25:14.698Z,5.00
2018-04-17T03:27:18.019Z,4.60
2018-04-17T03:29:22.113Z,4.20
2018-04-17T03:31:25.444Z,3.97
2018-04-17T03:33:28.788Z,3.43
2018-04-17T03:35:32.168Z,3.80
2018-04-17T03:37:35.505Z,4.00
2018-04-17T03:39:38.829Z,3.90
2018-04-17T03:41:42.925Z,4.17
2018-04-17T03:43:46.274Z,4.10
2018-04-17T03:45:49.615Z,4.23
2018-04-17T03:47:52.924Z,4.17
2018-04-17T03:49:56.501Z,4.20
2018-04-17T03:51:59.855Z,3.97
2018-04-17T03:54:03.981Z,3.90
2018-04-17T03:56:07.315Z,3.63
2018-04-17T03:58:10.667Z,4.33
2018-04-17T04:00:14.003Z,4.37
2018-04-17T04:02:18.126Z,3.70
2018-04-17T04:04:21.533Z,4.27
2018-04-17T04:06:25.612Z,4.10
2018-04-17T04:08:28.941Z,4.33
2018-04-17T04:10:32.311Z,4.63
2018-04-17T04:12:36.421Z,4.03
2018-04-17T04:14:39.770Z,4.00
2018-04-17T04:16:54.905Z,4.00
2018-04-17T04:19:10.773Z,3.90
2018-04-17T04:21:25.941Z,4.10
2018-04-17T04:23:41.914Z,4.40
2018-04-17T04:28:17.869Z,4.20
2018-04-17T04:30:22.010Z,4.17
2018-04-17T04:32:25.328Z,3.40
2018-04-17T04:34:28.647Z,3.80
2018-04-17T04:36:32.006Z,4.53
2018-04-17T04:38:36.413Z,4.07
2018-04-17T04:40:40.787Z,4.10
2018-04-17T04:42:44.173Z,4.50
2018-04-17T04:44:47.508Z,4.27
2018-04-17T04:46:50.904Z,4.40
2018-04-17T04:48:54.227Z,4.40
2018-04-17T04:50:57.777Z,4.70
2018-04-17T04:53:01.852Z,4.30
2018-04-17T04:55:05.177Z,4.43
2018-04-17T04:57:09.432Z,4.30
2018-04-17T04:59:12.775Z,5.33
2018-04-17T05:01:16.188Z,4.30
2018-04-17T05:03:19.535Z,4.53
2018-04-17T05:05:22.840Z,4.27
2018-04-17T05:07:26.272Z,4.50
2018-04-17T05:09:29.640Z,4.67
2018-04-17T05:11:33.059Z,4.37
2018-04-17T05:13:36.401Z,5.30
2018-04-17T05:15:39.720Z,4.90
2018-04-17T05:17:43.115Z,3.90
2018-04-17T05:19:46.441Z,4.97
2018-04-17T05:21:49.763Z,4.47
2018-04-17T05:23:53.888Z,4.63
2018-04-17T05:25:57.992Z,5.17
2018-04-17T05:28:02.124Z,4.37
2018-04-17T05:30:06.204Z,4.03
2018-04-17T05:32:09.516Z,4.60
2018-04-17T05:34:13.632Z,4.77
2018-04-17T05:36:17.052Z,4.20
2018-04-17T05:38:20.425Z,4.80
2018-04-17T05:40:25.305Z,4.60
2018-04-17T05:42:28.899Z,5.40
2018-04-17T05:44:32.241Z,4.90
2018-04-17T05:46:35.574Z,4.80
2018-04-17T05:48:38.913Z,5.63
2018-04-17T05:50:43.010Z,4.93
2018-04-17T05:52:47.090Z,5.30
2018-04-17T05:54:50.424Z,5.40
2018-04-17T05:56:54.496Z,4.93
2018-04-17T05:58:57.841Z,4.90
2018-04-17T06:01:01.184Z,5.97
2018-04-17T06:03:04.481Z,5.20
2018-04-17T06:05:07.830Z,5.23
2018-04-17T06:07:11.167Z,5.27
2018-04-17T06:09:15.297Z,5.30
2018-04-17T06:11:19.367Z,5.70
2018-04-17T06:13:22.731Z,5.20
2018-04-17T06:15:26.093Z,5.77
2018-04-17T06:17:30.198Z,5.97
2018-04-17T06:19:34.271Z,6.50
2018-04-17T06:21:37.579Z,6.03
2018-04-17T06:23:40.898Z,5.23
2018-04-17T06:25:44.245Z,4.53
2018-04-17T06:27:47.582Z,5.80
2018-04-17T06:29:50.915Z,5.80
2018-04-17T06:31:54.256Z,4.63
2018-04-17T06:33:58.345Z,5.80
2018-04-17T06:36:01.708Z,4.80
2018-04-17T06:38:05.029Z,4.93
2018-04-17T06:40:08.370Z,6.83
2018-04-17T06:42:11.686Z,5.30
2018-04-17T06:44:15.012Z,5.70
2018-04-17T06:46:19.125Z,5.57
2018-04-17T06:48:23.224Z,5.87
2018-04-17T06:50:27.304Z,5.97
2018-04-17T06:52:30.677Z,6.00
2018-04-17T06:54:34.007Z,6.07
2018-04-17T06:56:37.359Z,6.00
2018-04-17T06:58:40.712Z,6.30
2018-04-17T07:00:44.049Z,5.47
2018-04-17T07:02:47.413Z,5.90
2018-04-17T07:04:50.749Z,5.70
2018-04-17T07:06:54.101Z,5.40
2018-04-17T07:08:57.417Z,5.90
2018-04-17T07:11:00.780Z,5.67
2018-04-17T07:13:04.145Z,5.53
2018-04-17T07:15:08.231Z,5.83
2018-04-17T07:17:11.618Z,5.60
2018-04-17T07:19:14.937Z,5.77
2018-04-17T07:21:18.317Z,5.00
2018-04-17T07:23:21.676Z,5.33
2018-04-17T07:25:24.992Z,5.60
2018-04-17T07:27:28.339Z,5.90
2018-04-17T07:29:32.520Z,5.80
2018-04-17T07:31:36.612Z,5.10
2018-04-17T07:33:40.761Z,5.07
2018-04-17T07:35:44.112Z,5.27
2018-04-17T07:37:48.222Z,5.17
2018-04-17T07:39:52.311Z,5.77
2018-04-17T07:41:56.423Z,4.80
2018-04-17T07:44:00.555Z,5.93
2018-04-17T07:46:04.645Z,5.43
2018-04-17T07:48:22.472Z,4.93
2018-04-17T07:50:25.815Z,5.70
2018-04-17T07:52:29.134Z,5.90
2018-04-17T07:54:32.501Z,5.53
2018-04-17T07:56:35.838Z,5.77
2018-04-17T07:58:39.173Z,5.50
2018-04-17T08:00:42.491Z,7.63
2018-04-17T08:02:45.815Z,5.87
2018-04-17T08:04:49.950Z,6.30
2018-04-17T08:06:53.284Z,6.57
2018-04-17T08:08:56.611Z,5.87
2018-04-17T08:10:59.956Z,6.07
2018-04-17T08:13:03.298Z,5.20
2018-04-17T08:15:07.430Z,6.10
2018-04-17T08:17:10.779Z,5.90
2018-04-17T08:19:14.115Z,5.63
2018-04-17T08:21:17.455Z,7.20
2018-04-17T08:23:20.772Z,7.03
2018-04-17T08:25:24.136Z,5.70
2018-04-17T08:27:27.463Z,5.97
2018-04-17T08:29:31.590Z,6.43
2018-04-17T08:31:34.964Z,6.93
2018-04-17T08:33:39.510Z,6.93
2018-04-17T08:35:42.852Z,6.77
2018-04-17T08:37:46.173Z,7.37
2018-04-17T08:39:50.276Z,7.27
2018-04-17T08:41:54.417Z,7.03
2018-04-17T08:43:57.765Z,6.50
2018-04-17T08:46:01.848Z,7.43
2018-04-17T08:48:05.160Z,6.87
2018-04-17T08:50:09.268Z,7.73
2018-04-17T08:52:13.427Z,7.27
2018-04-17T08:54:16.753Z,7.10
2018-04-17T08:56:20.085Z,8.53
2018-04-17T08:58:23.416Z,8.07
2018-04-17T09:00:27.970Z,8.20
2018-04-17T09:02:32.136Z,10.00
2018-04-17T09:04:35.461Z,9.93
2018-04-17T09:06:38.778Z,9.13
2018-04-17T09:08:42.862Z,8.80
2018-04-17T09:10:46.181Z,8.57
2018-04-17T09:12:50.314Z,9.07
2018-04-17T09:14:53.652Z,7.90
2018-04-17T09:16:59.978Z,8.20
2018-04-17T09:19:03.326Z,8.47
2018-04-17T09:21:10.040Z,9.73
2018-04-17T09:23:14.606Z,9.07
2018-04-17T09:25:18.697Z,10.17
2018-04-17T09:27:22.063Z,8.40
2018-04-17T09:29:25.402Z,6.97
2018-04-17T09:31:28.713Z,6.30
2018-04-17T09:33:32.855Z,7.03
2018-04-17T09:35:36.163Z,6.40
2018-04-17T09:37:39.504Z,5.10
2018-04-17T09:39:43.621Z,5.57
2018-04-17T09:41:47.581Z,5.47
2018-04-17T09:43:50.964Z,5.23
2018-04-17T09:45:54.312Z,5.17
2018-04-17T09:47:57.655Z,4.70
2018-04-17T09:50:01.428Z,4.10
2018-04-17T09:52:04.787Z,4.40
2018-04-17T09:54:09.307Z,5.07
2018-04-17T09:56:12.665Z,4.80
2018-04-17T09:58:16.786Z,4.27
2018-04-17T10:00:21.648Z,4.60
2018-04-17T10:02:24.981Z,4.30
2018-04-17T10:04:28.345Z,4.27
2018-04-17T10:06:31.664Z,4.77
2018-04-17T10:08:34.984Z,5.03
2018-04-17T10:10:39.112Z,4.83
2018-04-17T10:12:43.198Z,4.50
2018-04-17T10:14:47.287Z,4.10
2018-04-17T10:16:50.657Z,4.13
2018-04-17T10:18:53.966Z,4.30
2018-04-17T10:20:57.308Z,4.50
2018-04-17T10:23:00.615Z,3.97
2018-04-17T10:25:03.945Z,3.80
2018-04-17T10:27:07.298Z,4.37
2018-04-17T10:29:10.625Z,4.20
2018-04-17T10:31:13.973Z,4.00
2018-04-17T10:33:17.308Z,4.97
2018-04-17T10:35:20.634Z,4.03
2018-04-17T10:37:23.999Z,3.57
2018-04-17T10:39:28.258Z,2.90
2018-04-17T10:41:32.402Z,3.83
2018-04-17T10:43:36.634Z,3.10
2018-04-17T10:45:40.909Z,3.70
2018-04-17T10:47:44.296Z,3.00
2018-04-17T10:49:47.617Z,2.40
2018-04-17T10:51:51.007Z,3.10
2018-04-17T10:53:54.608Z,3.20
2018-04-17T10:55:58.413Z,2.93
2018-04-17T10:58:02.553Z,2.90
2018-04-17T11:00:06.629Z,3.50
2018-04-17T11:02:10.587Z,4.03
2018-04-17T11:04:13.902Z,3.47
2018-04-17T11:06:17.216Z,3.37
2018-04-17T11:08:20.619Z,3.43
2018-04-17T11:10:24.019Z,3.60
2018-04-17T11:12:28.287Z,3.83
2018-04-17T11:14:31.786Z,4.00
2018-04-17T11:16:35.132Z,4.17
2018-04-17T11:18:39.275Z,3.93
2018-04-17T11:20:43.547Z,4.20
2018-04-17T11:22:47.870Z,3.87
2018-04-17T11:24:51.981Z,4.53
2018-04-17T11:26:55.363Z,3.53
2018-04-17T11:28:59.090Z,3.63
2018-04-17T11:31:02.417Z,4.43
2018-04-17T11:33:05.743Z,3.60
2018-04-17T11:35:09.083Z,4.37
2018-04-17T11:37:12.422Z,3.73
2018-04-17T11:39:15.728Z,3.27
2018-04-17T11:41:19.124Z,3.23
2018-04-17T11:43:23.394Z,3.60
2018-04-17T11:45:27.503Z,2.83
2018-04-17T11:47:30.811Z,3.10
2018-04-17T11:49:34.113Z,2.83
2018-04-17T11:51:37.448Z,3.63
2018-04-17T11:53:41.539Z,3.50
2018-04-17T11:55:44.861Z,3.23
2018-04-17T11:57:48.229Z,3.00
2018-04-17T11:59:51.563Z,2.40
2018-04-17T12:01:54.900Z,3.23
2018-04-17T12:03:58.228Z,2.70
2018-04-17T12:06:01.565Z,3.17
2018-04-17T12:08:05.674Z,2.47
2018-04-17T12:10:09.042Z,3.07
2018-04-17T12:12:12.379Z,3.17
2018-04-17T12:14:15.725Z,3.07
2018-04-17T12:16:19.043Z,2.83
2018-04-17T12:18:22.402Z,3.13
2018-04-17T12:20:25.779Z,2.30
2018-04-17T12:22:29.084Z,2.83
2018-04-17T12:24:32.409Z,2.30
2018-04-17T12:26:35.727Z,2.83
2018-04-17T12:28:39.041Z,2.40
2018-04-17T12:30:42.366Z,2.50
2018-04-17T12:32:45.697Z,2.00
2018-04-17T12:34:49.031Z,2.00
2018-04-17T12:36:52.359Z,1.97
2018-04-17T12:38:55.948Z,2.50
2018-04-17T12:40:59.452Z,2.07
2018-04-17T12:43:02.785Z,2.37
2018-04-17T12:45:06.115Z,3.03
2018-04-17T12:47:10.195Z,2.33
2018-04-17T12:49:14.363Z,2.47
2018-04-17T12:51:17.716Z,2.20
2018-04-17T12:53:21.065Z,2.13
2018-04-17T12:55:24.396Z,1.97
2018-04-17T12:57:28.505Z,2.70
2018-04-17T12:59:31.804Z,2.10
2018-04-17T13:01:35.904Z,2.40
2018-04-17T13:03:39.572Z,2.63
2018-04-17T13:05:42.958Z,2.73
2018-04-17T13:07:46.321Z,2.20
2018-04-17T13:09:50.526Z,2.03
2018-04-17T13:11:53.897Z,1.90
2018-04-17T13:13:57.997Z,1.73
2018-04-17T13:16:01.441Z,2.30
2018-04-17T13:18:04.805Z,2.20
2018-04-17T13:20:08.145Z,2.17
2018-04-17T13:22:12.445Z,2.27
2018-04-17T13:24:21.984Z,2.10
2018-04-17T13:26:25.352Z,1.90
2018-04-17T13:28:29.379Z,1.80
2018-04-17T13:30:34.593Z,2.18
2018-04-17T13:32:38.301Z,2.00
2018-04-17T13:34:41.736Z,2.33
2018-04-17T13:36:45.076Z,2.30
2018-04-17T13:38:48.591Z,2.00
2018-04-17T13:40:52.013Z,2.00
2018-04-17T13:42:56.130Z,2.20
2018-04-17T13:44:59.433Z,2.30
2018-04-17T13:47:02.750Z,2.10
2018-04-17T13:49:06.133Z,2.40
2018-04-17T13:51:09.472Z,2.20
2018-04-17T13:53:13.085Z,1.90
2018-04-17T13:55:16.408Z,2.17
2018-04-17T13:57:20.496Z,2.00
2018-04-17T13:59:23.792Z,1.87
2018-04-17T14:01:27.113Z,1.90
2018-04-17T14:03:31.197Z,2.30
2018-04-17T14:05:34.581Z,2.20
2018-04-17T14:07:37.892Z,2.00
2018-04-17T14:09:41.980Z,2.00
2018-04-17T14:11:45.288Z,1.90
2018-04-17T14:13:48.617Z,2.50
2018-04-17T14:15:51.933Z,1.90
2018-04-17T14:17:55.247Z,1.83
2018-04-17T14:19:59.369Z,1.93
2018-04-17T14:22:02.689Z,2.10
2018-04-17T14:24:06.052Z,2.30
2018-04-17T14:26:10.161Z,1.67
2018-04-17T14:28:14.274Z,1.90
2018-04-17T14:30:17.657Z,1.80
2018-04-17T14:32:21.034Z,2.23
2018-04-17T14:34:25.174Z,2.10
2018-04-17T14:36:28.506Z,2.13
2018-04-17T14:38:31.828Z,2.00
2018-04-17T14:40:35.165Z,1.90
2018-04-17T14:42:38.482Z,2.40
2018-04-17T14:44:41.798Z,2.30
2018-04-17T14:46:45.116Z,2.70
2018-04-17T14:48:49.205Z,2.00
2018-04-17T14:50:52.545Z,2.20
2018-04-17T14:52:55.928Z,3.53
2018-04-17T14:54:59.442Z,2.33
2018-04-17T14:57:02.780Z,1.97
2018-04-17T14:59:06.112Z,2.17
2018-04-17T15:01:10.303Z,2.00
2018-04-17T15:03:14.600Z,2.07
2018-04-17T15:05:18.698Z,1.90
2018-04-17T15:07:22.065Z,1.90
2018-04-17T15:09:25.375Z,1.90
2018-04-17T15:11:28.697Z,1.80
2018-04-17T15:13:32.035Z,1.70
2018-04-17T15:15:35.341Z,1.80
2018-04-17T15:17:38.649Z,2.30
2018-04-17T15:19:41.969Z,2.03
2018-04-17T15:21:46.050Z,2.03
2018-04-17T15:23:50.146Z,2.23
2018-04-17T15:25:53.455Z,2.13
2018-04-17T15:27:56.803Z,2.00
2018-04-17T15:30:00.444Z,1.83
2018-04-17T15:32:06.785Z,1.80
2018-04-17T15:34:10.353Z,2.00
2018-04-17T15:36:13.703Z,2.50
2018-04-17T15:38:17.957Z,1.90
2018-04-17T15:40:21.272Z,2.30
2018-04-17T15:42:24.621Z,2.10
2018-04-17T15:44:27.959Z,1.80
2018-04-17T15:46:31.298Z,2.10
2018-04-17T15:48:34.644Z,1.77
2018-04-17T15:50:37.987Z,2.40
2018-04-17T15:52:41.326Z,2.67
2018-04-17T15:54:44.651Z,2.33
2018-04-17T15:56:48.007Z,2.80
2018-04-17T15:58:51.356Z,1.80
2018-04-17T16:00:54.683Z,2.33
2018-04-17T16:02:58.001Z,2.27
2018-04-17T16:05:01.323Z,1.87
2018-04-17T16:07:04.667Z,1.90
2018-04-17T16:09:08.020Z,2.57
2018-04-17T16:11:11.342Z,1.97
2018-04-17T16:13:14.657Z,2.37
2018-04-17T16:15:18.884Z,2.33
2018-04-17T16:17:22.984Z,2.13
2018-04-17T16:19:26.312Z,2.00
2018-04-17T16:21:29.720Z,2.23
2018-04-17T16:23:33.760Z,2.20
2018-04-17T16:25:37.077Z,1.87
2018-04-17T16:27:40.397Z,2.33
2018-04-17T16:29:43.742Z,2.20
2018-04-17T16:31:47.813Z,2.07
2018-04-17T16:33:51.170Z,2.43
2018-04-17T16:35:54.481Z,2.43
2018-04-17T16:37:57.837Z,2.00
2018-04-17T16:40:01.931Z,1.80
2018-04-17T16:42:06.020Z,2.10
2018-04-17T16:44:11.018Z,2.10
2018-04-17T16:46:14.394Z,3.33
2018-04-17T16:48:17.871Z,2.03
2018-04-17T16:50:22.024Z,2.30
2018-04-17T16:52:25.348Z,2.50
2018-04-17T16:54:28.732Z,2.00
2018-04-17T16:56:32.064Z,1.90
2018-04-17T16:58:35.522Z,2.20
2018-04-17T17:00:39.075Z,2.60
2018-04-17T17:02:42.388Z,2.33
2018-04-17T17:04:45.698Z,2.00
2018-04-17T17:06:49.031Z,1.97
2018-04-17T17:08:52.375Z,1.87
2018-04-17T17:10:55.700Z,2.20
2018-04-17T17:12:59.965Z,2.00
2018-04-17T17:15:03.302Z,2.20
2018-04-17T17:17:06.761Z,2.03
2018-04-17T17:19:10.105Z,2.17
2018-04-17T17:21:13.464Z,2.07
2018-04-17T17:23:16.953Z,2.20
2018-04-17T17:25:20.281Z,2.33
2018-04-17T17:27:23.600Z,2.70
2018-04-17T17:29:27.303Z,2.30
2018-04-17T17:31:30.734Z,2.47
2018-04-17T17:33:34.088Z,1.80
2018-04-17T17:35:37.411Z,2.20
2018-04-17T17:37:40.880Z,2.80
2018-04-17T17:39:44.198Z,2.23
2018-04-17T17:41:47.559Z,2.30
2018-04-17T17:43:50.979Z,2.10
2018-04-17T17:45:54.450Z,2.27
2018-04-17T17:47:57.888Z,1.93
2018-04-17T17:50:01.281Z,2.20
2018-04-17T17:52:04.752Z,2.33
2018-04-17T17:54:08.351Z,2.50
2018-04-17T17:56:12.487Z,2.17
2018-04-17T17:58:16.573Z,2.37
2018-04-17T18:00:19.948Z,2.67
2018-04-17T18:02:23.496Z,2.30
2018-04-17T18:04:26.847Z,2.33
2018-04-17T18:06:30.178Z,2.63
2018-04-17T18:08:33.539Z,2.63
2018-04-17T18:10:37.729Z,3.03
2018-04-17T18:12:41.051Z,2.60
2018-04-17T18:14:44.383Z,3.30
2018-04-17T18:16:47.801Z,2.50
2018-04-17T18:18:51.255Z,2.40
2018-04-17T18:20:54.703Z,2.73
2018-04-17T18:22:59.035Z,2.80
2018-04-17T18:25:03.172Z,2.53
2018-04-17T18:27:06.659Z,2.70
2018-04-17T18:29:10.031Z,2.97
2018-04-17T18:31:14.113Z,3.30
2018-04-17T18:33:18.224Z,3.97
2018-04-17T18:35:22.659Z,3.27
2018-04-17T18:37:26.731Z,3.30
2018-04-17T18:39:30.118Z,2.93
2018-04-17T18:41:33.420Z,3.20
2018-04-17T18:43:36.731Z,3.27
2018-04-17T18:45:40.265Z,4.00
2018-04-17T18:47:43.818Z,4.10
2018-04-17T18:49:47.485Z,3.90
2018-04-17T18:51:51.690Z,4.53
2018-04-17T18:53:55.136Z,4.40
2018-04-17T18:55:59.191Z,3.90
2018-04-17T18:58:02.939Z,4.60
2018-04-17T19:00:06.512Z,3.20
2018-04-17T19:02:10.498Z,3.57
2018-04-17T19:04:13.825Z,3.70
2018-04-17T19:06:18.133Z,3.60
2018-04-17T19:08:22.315Z,4.50
2018-04-17T19:10:27.069Z,4.00
2018-04-17T19:12:30.448Z,3.60
2018-04-17T19:14:34.032Z,4.73
2018-04-17T19:16:37.613Z,3.50
2018-04-17T19:18:40.982Z,3.43
2018-04-17T19:20:44.446Z,3.53
2018-04-17T19:22:48.546Z,3.30
2018-04-17T19:24:52.551Z,2.97
2018-04-17T19:26:56.980Z,2.83
2018-04-17T19:29:00.397Z,2.97
2018-04-17T19:31:04.515Z,2.30
2018-04-17T19:33:08.187Z,2.27
2018-04-17T19:35:12.285Z,2.53
2018-04-17T19:37:15.619Z,2.53
2018-04-17T19:39:18.949Z,2.63
2018-04-17T19:41:22.309Z,2.73
2018-04-17T19:43:26.394Z,2.50
2018-04-17T19:45:29.798Z,3.23
2018-04-17T19:47:33.123Z,2.90
2018-04-17T19:49:36.439Z,2.90
2018-04-17T19:51:39.764Z,2.80
2018-04-17T19:53:43.849Z,3.10
2018-04-17T19:55:48.111Z,3.07
2018-04-17T19:57:51.428Z,2.70
2018-04-17T19:59:54.744Z,3.50
2018-04-17T20:01:58.051Z,3.13
2018-04-17T20:04:02.139Z,3.67
2018-04-17T20:06:05.441Z,3.50
2018-04-17T20:08:09.530Z,3.57
2018-04-17T20:10:12.837Z,3.50
2018-04-17T20:12:16.139Z,3.83
2018-04-17T20:14:20.215Z,4.20
2018-04-17T20:16:23.535Z,4.30
2018-04-17T20:18:27.623Z,4.07
2018-04-17T20:20:30.969Z,3.20
2018-04-17T20:22:34.292Z,3.77
2018-04-17T20:24:37.609Z,3.40
2018-04-17T20:26:40.911Z,3.43
2018-04-17T20:28:45.022Z,3.33
2018-04-17T20:30:48.350Z,3.90
2018-04-17T20:32:51.677Z,3.17
2018-04-17T20:34:55.769Z,3.10
2018-04-17T20:36:59.127Z,3.60
2018-04-17T20:39:02.453Z,3.80
2018-04-17T20:41:06.565Z,3.90
2018-04-17T20:43:10.747Z,3.70
2018-04-17T20:45:14.092Z,2.90
2018-04-17T20:47:18.169Z,3.43
2018-04-17T20:49:21.483Z,2.90
2018-04-17T20:51:24.830Z,3.80
2018-04-17T20:53:28.151Z,3.67
2018-04-17T20:55:31.467Z,3.40
2018-04-17T20:57:35.554Z,3.83
2018-04-17T20:59:38.883Z,3.83
2018-04-17T21:01:43.087Z,3.33
2018-04-17T21:03:47.180Z,4.27
2018-04-17T21:05:51.267Z,3.50
2018-04-17T21:07:54.587Z,3.80
2018-04-17T21:09:57.940Z,4.03
2018-04-17T21:12:01.255Z,3.33
2018-04-17T21:14:04.587Z,3.70
2018-04-17T21:16:07.919Z,3.67
2018-04-17T21:18:11.270Z,3.50
2018-04-17T21:20:14.593Z,4.10
2018-04-17T21:22:17.932Z,3.27
2018-04-17T21:24:21.253Z,3.70
2018-04-17T21:26:24.571Z,4.13
2018-04-17T21:28:27.890Z,3.40
2018-04-17T21:30:31.254Z,4.17
2018-04-17T21:32:34.615Z,4.87
2018-04-17T21:34:37.955Z,3.60
2018-04-17T21:36:41.277Z,4.60
2018-04-17T21:38:44.594Z,4.20
2018-04-17T21:40:47.904Z,4.00
2018-04-17T21:42:51.339Z,4.10
2018-04-17T21:44:54.696Z,3.10
2018-04-17T21:46:58.043Z,3.80
2018-04-17T21:49:01.368Z,3.90
2018-04-17T21:51:04.693Z,4.00
2018-04-17T21:53:08.815Z,4.40
2018-04-17T21:55:12.162Z,3.90
2018-04-17T21:57:16.395Z,3.73
2018-04-17T21:59:19.853Z,4.00
2018-04-17T22:01:28.766Z,3.80
2018-04-17T22:03:32.140Z,3.70
2018-04-17T22:05:35.784Z,3.60
2018-04-17T22:07:41.274Z,4.00
2018-04-17T22:09:45.351Z,3.87
2018-04-17T22:11:51.379Z,3.77
2018-04-17T22:13:54.717Z,3.63
2018-04-17T22:15:59.084Z,3.33
2018-04-17T22:18:03.234Z,3.30
2018-04-17T22:20:07.393Z,3.73
2018-04-17T22:22:10.728Z,3.27
2018-04-17T22:24:14.893Z,4.23
2018-04-17T22:26:18.692Z,4.00
2018-04-17T22:28:22.985Z,3.63
2018-04-17T22:30:26.327Z,3.53
2018-04-17T22:32:30.435Z,3.50
2018-04-17T22:34:34.549Z,3.57
2018-04-17T22:36:38.243Z,3.40
2018-04-17T22:38:41.882Z,3.40
2018-04-17T22:40:45.332Z,3.13
2018-04-17T22:42:48.718Z,3.47
2018-04-17T22:44:52.049Z,3.60
2018-04-17T22:46:56.139Z,3.27
2018-04-17T22:48:59.693Z,3.80
2018-04-17T22:51:03.012Z,3.40
2018-04-17T22:53:06.354Z,3.60
2018-04-17T22:55:10.593Z,3.40
2018-04-17T22:57:13.918Z,3.70
2018-04-17T22:59:17.542Z,3.77
2018-04-17T23:01:21.621Z,4.03
2018-04-17T23:03:25.742Z,3.90
2018-04-17T23:05:29.143Z,3.60
2018-04-17T23:07:32.457Z,4.10
2018-04-17T23:09:35.795Z,4.10
2018-04-17T23:11:39.600Z,4.30
2018-04-17T23:13:42.941Z,4.70
2018-04-17T23:15:46.332Z,4.50
2018-04-17T23:17:49.683Z,4.60
2018-04-17T23:19:52.996Z,5.10
2018-04-17T23:21:57.097Z,4.37
2018-04-17T23:24:00.412Z,4.30
2018-04-17T23:26:03.763Z,5.10
2018-04-17T23:28:07.084Z,4.40
2018-04-17T23:30:11.166Z,4.07
2018-04-17T23:32:14.483Z,4.43
2018-04-17T23:34:17.809Z,4.13
2018-04-17T23:36:21.187Z,4.20
2018-04-17T23:38:25.025Z,3.80
2018-04-17T23:40:28.762Z,4.20
2018-04-17T23:42:32.858Z,3.83
2018-04-17T23:44:36.191Z,4.23
2018-04-17T23:46:39.555Z,3.87
2018-04-17T23:48:43.627Z,4.00
2018-04-17T23:50:46.957Z,3.73
2018-04-17T23:52:50.278Z,3.80
2018-04-17T23:54:53.624Z,4.37
2018-04-17T23:56:56.963Z,5.00
2018-04-17T23:59:00.282Z,4.47
